createdAt,value
2023-03-07T00:00:00.889Z,68.20
2023-03-07T00:02:27.995Z,67.15
2023-03-07T00:04:55.708Z,63.22
2023-03-07T00:07:22.667Z,57.83
2023-03-07T00:09:49.589Z,58.33
2023-03-07T00:12:16.653Z,63.03
2023-03-07T00:14:43.561Z,68.32
2023-03-07T00:17:10.570Z,75.78
2023-03-07T00:19:37.572Z,68.47
2023-03-07T00:22:04.606Z,72.10
2023-03-07T00:24:31.811Z,68.70
2023-03-07T00:26:58.743Z,61.92
2023-03-07T00:29:25.692Z,79.70
2023-03-07T00:31:52.628Z,79.28
2023-03-07T00:34:19.646Z,74.50
2023-03-07T00:36:46.774Z,71.97
2023-03-07T00:39:14.638Z,77.97
2023-03-07T00:41:41.552Z,74.43
2023-03-07T00:44:08.509Z,73.32
2023-03-07T00:46:35.448Z,73.75
2023-03-07T00:49:02.594Z,78.88
2023-03-07T00:51:29.616Z,74.30
2023-03-07T00:53:56.893Z,68.75
2023-03-07T00:56:25.929Z,76.43
2023-03-07T00:58:53.200Z,70.97
2023-03-07T01:01:23.447Z,73.82
2023-03-07T01:03:53.771Z,71.28
2023-03-07T01:06:23.633Z,69.18
2023-03-07T01:08:51.323Z,68.80
2023-03-07T01:11:18.525Z,72.07
2023-03-07T01:13:45.920Z,70.40
2023-03-07T01:16:20.252Z,76.47
2023-03-07T01:18:53.727Z,72.43
2023-03-07T01:23:54.456Z,65.00
2023-03-07T01:26:24.005Z,64.43
2023-03-07T01:28:52.564Z,64.40
2023-03-07T01:31:20.588Z,68.30
2023-03-07T01:33:48.850Z,70.80
2023-03-07T01:36:22.469Z,73.78
2023-03-07T01:38:50.303Z,71.85
2023-03-07T01:41:17.640Z,80.38
2023-03-07T01:43:47.398Z,72.43
2023-03-07T01:46:17.992Z,69.43
2023-03-07T01:48:54.060Z,74.43
2023-03-07T01:51:21.499Z,76.40
2023-03-07T01:53:53.554Z,70.45
2023-03-07T01:56:22.461Z,76.38
2023-03-07T01:58:50.550Z,72.60
2023-03-07T02:01:18.175Z,81.03
2023-03-07T02:03:59.870Z,78.32
2023-03-07T02:06:28.796Z,74.55
2023-03-07T02:08:56.927Z,80.20
2023-03-07T02:11:24.778Z,78.32
2023-03-07T02:13:52.985Z,82.07
2023-03-07T02:16:20.465Z,80.32
2023-03-07T02:18:50.131Z,77.60
2023-03-07T02:21:23.014Z,77.07
2023-03-07T02:24:08.524Z,77.55
2023-03-07T06:41:20.073Z,51.97
2023-03-07T06:43:52.920Z,49.60
2023-03-07T06:46:25.726Z,59.70
2023-03-07T06:48:55.222Z,61.40
2023-03-07T06:51:23.467Z,66.47
2023-03-07T06:53:54.036Z,71.65
2023-03-07T06:56:21.032Z,78.22
2023-03-07T06:58:48.594Z,76.25
2023-03-07T07:01:21.157Z,74.72
2023-03-07T07:03:51.074Z,94.60
2023-03-07T07:06:18.757Z,93.05
2023-03-07T07:08:45.725Z,83.93
2023-03-07T07:11:12.950Z,73.57
2023-03-07T07:13:40.118Z,69.93
2023-03-07T07:16:09.575Z,79.28
2023-03-07T07:18:38.709Z,73.93
2023-03-07T07:21:07.314Z,67.28
2023-03-07T07:23:34.256Z,73.10
2023-03-07T07:26:01.768Z,64.35
2023-03-07T07:28:28.987Z,75.10
2023-03-07T07:30:56.131Z,74.10
2023-03-07T07:33:23.746Z,80.10
2023-03-07T07:35:51.492Z,75.70
2023-03-07T07:38:19.155Z,82.93
2023-03-07T07:40:46.151Z,83.90
2023-03-07T07:43:18.610Z,88.70
2023-03-07T07:45:54.095Z,86.40
2023-03-07T07:48:21.950Z,95.63
2023-03-07T07:50:49.464Z,89.45
2023-03-07T07:53:17.950Z,89.72
2023-03-07T07:55:46.177Z,92.22
2023-03-07T07:58:13.219Z,100.15
2023-03-07T08:00:40.379Z,92.38
2023-03-07T08:03:07.431Z,93.57
2023-03-07T08:05:34.425Z,101.47
2023-03-07T08:08:01.362Z,97.00
2023-03-07T08:10:28.347Z,97.53
2023-03-07T08:12:55.582Z,97.65
2023-03-07T08:15:22.659Z,102.60
2023-03-07T08:17:51.270Z,86.32
2023-03-07T08:20:22.251Z,92.00
2023-03-07T08:22:50.525Z,100.53
2023-03-07T08:25:22.528Z,101.43
2023-03-07T08:27:55.141Z,95.22
2023-03-07T08:30:24.415Z,99.13
2023-03-07T08:32:53.164Z,95.10
2023-03-07T08:35:20.365Z,90.25
2023-03-07T08:37:49.131Z,90.13
2023-03-07T08:40:16.980Z,94.22
2023-03-07T08:42:44.022Z,94.65
2023-03-07T08:45:11.626Z,98.53
2023-03-07T08:47:38.695Z,95.32
2023-03-07T08:50:06.236Z,98.07
2023-03-07T08:52:34.097Z,92.43
2023-03-07T08:55:01.004Z,103.90
2023-03-07T08:57:28.007Z,100.22
2023-03-07T08:59:55.017Z,97.38
2023-03-07T09:02:22.022Z,97.78
2023-03-07T09:04:49.836Z,91.95
2023-03-07T09:07:17.233Z,96.53
2023-03-07T09:09:44.797Z,99.10
2023-03-07T09:12:11.709Z,92.57
2023-03-07T09:14:38.732Z,109.60
2023-03-07T09:17:05.764Z,93.18
2023-03-07T09:19:32.953Z,101.95
2023-03-07T09:21:59.962Z,96.10
2023-03-07T09:24:29.773Z,85.60
2023-03-07T09:26:57.049Z,91.03
2023-03-07T09:29:24.861Z,88.35
2023-03-07T09:31:51.915Z,93.28
2023-03-07T09:34:18.866Z,88.55
2023-03-07T09:36:45.783Z,80.53
2023-03-07T09:39:16.664Z,85.53
2023-03-07T09:47:47.773Z,84.40
2023-03-07T09:50:23.288Z,78.85
2023-03-07T09:52:53.632Z,76.15
2023-03-07T09:55:21.989Z,74.22
2023-03-07T09:57:50.606Z,70.13
2023-03-07T10:05:35.583Z,73.83
2023-03-07T10:13:43.563Z,67.88
2023-03-07T10:16:16.430Z,69.20
2023-03-07T10:21:44.513Z,65.90
2023-03-07T10:35:16.185Z,60.90
2023-03-07T14:50:44.002Z,22.13
2023-03-07T14:53:29.645Z,27.02
2023-03-07T14:55:59.537Z,24.00
2023-03-07T14:58:36.178Z,21.25
2023-03-07T15:11:22.561Z,19.00
2023-03-07T15:13:52.509Z,20.43
2023-03-07T15:16:25.953Z,26.30
2023-03-07T15:21:24.842Z,25.85
2023-03-07T15:23:58.626Z,25.50
2023-03-07T15:29:02.291Z,27.23
2023-03-07T15:31:31.829Z,23.58
2023-03-07T15:34:20.307Z,21.02
2023-03-07T15:36:47.227Z,26.75
2023-03-07T15:39:43.565Z,25.63
2023-03-07T15:42:23.689Z,27.02
2023-03-07T15:45:04.939Z,32.22
2023-03-07T15:47:32.647Z,33.13
2023-03-07T15:50:03.952Z,30.35
2023-03-07T15:52:34.163Z,25.42
2023-03-07T15:55:05.450Z,29.55
2023-03-07T15:57:39.237Z,29.95
2023-03-07T16:03:33.022Z,27.33
2023-03-07T16:06:01.682Z,22.15
2023-03-07T16:08:28.832Z,22.95
2023-03-07T16:11:04.719Z,23.70
2023-03-07T16:13:42.341Z,20.95
2023-03-07T16:16:17.416Z,27.08
2023-03-07T16:18:45.586Z,22.75
2023-03-07T16:21:14.207Z,23.98
2023-03-07T16:23:41.808Z,24.50
2023-03-07T16:26:17.462Z,29.02
2023-03-07T16:28:44.618Z,29.77
2023-03-07T16:31:13.386Z,26.35
2023-03-07T16:33:40.676Z,32.28
2023-03-07T16:36:10.218Z,26.60
2023-03-07T16:38:37.403Z,27.90
2023-03-07T16:41:10.379Z,30.88
2023-03-07T16:43:38.288Z,28.00
2023-03-07T16:46:26.240Z,25.73
2023-03-07T16:48:53.252Z,30.42
2023-03-07T16:51:23.483Z,28.05
2023-03-07T16:53:51.230Z,28.35
2023-03-07T16:56:41.942Z,32.17
2023-03-07T16:59:20.946Z,29.50
2023-03-07T17:01:50.673Z,31.63
2023-03-07T17:04:18.168Z,43.75
2023-03-07T17:06:46.235Z,41.65
2023-03-07T17:09:15.742Z,37.60
2023-03-07T17:11:51.000Z,45.40
2023-03-07T17:14:19.495Z,29.48
2023-03-07T17:16:50.390Z,29.60
2023-03-07T17:19:35.162Z,33.78
2023-03-07T17:22:03.367Z,28.20
2023-03-07T17:24:31.212Z,25.92
2023-03-07T17:27:07.415Z,25.05
2023-03-07T17:30:00.646Z,20.95
2023-03-07T17:32:27.728Z,24.10
2023-03-07T17:34:54.812Z,26.70
2023-03-07T17:37:22.180Z,21.30
2023-03-07T17:39:49.124Z,21.30
2023-03-07T17:42:17.405Z,15.98
2023-03-07T17:44:44.358Z,16.42
2023-03-07T17:47:11.281Z,14.85
2023-03-07T17:49:39.401Z,19.52
2023-03-07T17:52:07.555Z,12.93
2023-03-07T17:54:35.194Z,19.40
2023-03-07T17:57:02.997Z,22.55
2023-03-07T17:59:32.316Z,20.45
2023-03-07T18:01:59.394Z,17.23
2023-03-07T18:04:28.567Z,19.25
2023-03-07T18:06:55.538Z,22.42
2023-03-07T18:09:23.340Z,15.88
2023-03-07T18:11:50.305Z,27.02
2023-03-07T18:14:17.622Z,19.98
2023-03-07T18:16:44.936Z,21.13
2023-03-07T18:19:25.386Z,22.38
2023-03-07T18:21:53.187Z,21.45
2023-03-07T18:24:21.416Z,24.30
2023-03-07T18:26:52.151Z,21.17
2023-03-07T18:29:19.751Z,22.67
2023-03-07T18:31:47.224Z,25.52
2023-03-07T18:34:15.217Z,17.52
2023-03-07T18:36:42.813Z,19.08
2023-03-07T18:39:13.810Z,27.10
2023-03-07T18:41:40.750Z,29.23
2023-03-07T18:44:08.112Z,22.63
2023-03-07T18:46:37.096Z,23.20
2023-03-07T18:49:04.190Z,23.38
2023-03-07T18:51:32.233Z,19.80
2023-03-07T18:54:01.235Z,19.80
2023-03-07T18:56:29.011Z,22.60
2023-03-07T18:58:59.465Z,21.48
2023-03-07T19:01:29.028Z,20.38
2023-03-07T19:03:57.608Z,16.17
2023-03-07T19:06:26.740Z,19.80
2023-03-07T19:08:53.856Z,14.13
2023-03-07T19:11:21.334Z,15.60
2023-03-07T19:13:49.579Z,17.58
2023-03-07T19:16:23.438Z,18.85
2023-03-07T19:18:51.521Z,20.23
2023-03-07T19:21:23.542Z,17.73
2023-03-07T19:23:51.651Z,20.48
2023-03-07T19:26:20.156Z,23.27
2023-03-07T19:28:49.572Z,22.85
2023-03-07T19:31:22.778Z,23.60
2023-03-07T19:33:50.647Z,47.05
2023-03-07T19:36:21.280Z,25.65
2023-03-07T19:38:49.961Z,24.42
2023-03-07T19:41:22.300Z,24.55
2023-03-07T19:43:52.092Z,24.33
2023-03-07T19:46:20.764Z,21.65
2023-03-07T19:48:48.258Z,23.35
2023-03-07T19:51:20.886Z,20.45
2023-03-07T19:53:47.886Z,21.65
2023-03-07T19:56:21.006Z,23.85
2023-03-07T19:58:48.089Z,23.20
2023-03-07T20:01:18.168Z,20.15
2023-03-07T20:03:45.869Z,24.85
2023-03-07T20:06:18.740Z,21.17
2023-03-07T20:11:30.438Z,25.58
2023-03-07T20:13:59.436Z,26.27
2023-03-07T20:16:29.304Z,22.95
2023-03-07T20:19:02.757Z,21.42
2023-03-07T20:21:30.464Z,24.27
2023-03-07T20:24:01.170Z,20.08
2023-03-07T20:26:35.353Z,19.60
2023-03-07T20:29:05.436Z,17.92
2023-03-07T20:31:33.264Z,23.23
2023-03-07T20:34:01.091Z,24.33
2023-03-07T20:36:30.826Z,27.40
2023-03-07T20:38:59.921Z,22.63
2023-03-07T20:41:29.567Z,20.63
2023-03-07T20:44:04.982Z,25.67
2023-03-07T20:46:33.045Z,24.90
2023-03-07T20:49:01.801Z,23.80
2023-03-07T20:51:32.005Z,24.02
2023-03-07T20:54:04.531Z,32.22
2023-03-07T20:56:33.220Z,27.60
2023-03-07T20:59:00.934Z,20.00
2023-03-07T21:01:29.812Z,35.83
2023-03-07T21:03:59.633Z,24.67
2023-03-07T21:06:26.735Z,23.88
2023-03-07T21:08:53.746Z,33.55
2023-03-07T21:11:21.505Z,27.30
2023-03-07T21:13:49.580Z,28.98
2023-03-07T21:16:19.375Z,30.45
2023-03-07T21:18:46.594Z,36.17
2023-03-07T21:21:18.894Z,30.63
2023-03-07T21:23:46.548Z,32.70
2023-03-07T21:26:14.382Z,27.00
2023-03-07T21:28:41.418Z,27.80
2023-03-07T21:31:19.296Z,29.95
2023-03-07T21:33:48.844Z,31.00
2023-03-07T21:36:18.725Z,26.70
2023-03-07T21:38:46.646Z,27.20
2023-03-07T21:41:14.614Z,27.60
2023-03-07T21:43:42.033Z,24.92
2023-03-07T21:46:11.863Z,27.20
2023-03-07T21:48:39.548Z,27.98
2023-03-07T21:51:06.846Z,26.20
2023-03-07T21:53:34.468Z,27.88
2023-03-07T21:56:04.767Z,31.55
2023-03-07T21:58:32.577Z,36.95
2023-03-07T22:00:59.779Z,37.42
2023-03-07T22:03:28.955Z,40.45
2023-03-07T22:05:57.421Z,29.02
2023-03-07T22:08:24.712Z,28.80
2023-03-07T22:11:03.417Z,27.98
2023-03-07T22:13:32.646Z,23.00
2023-03-07T22:16:02.196Z,27.60
2023-03-07T22:18:29.602Z,43.38
2023-03-07T22:20:56.765Z,35.75
2023-03-07T22:23:26.609Z,27.95
2023-03-07T22:25:53.786Z,30.00
2023-03-07T22:28:21.075Z,27.50
2023-03-07T22:30:49.449Z,33.55
2023-03-07T22:33:16.932Z,31.20
2023-03-07T22:35:43.961Z,27.58
2023-03-07T22:38:10.962Z,24.23
2023-03-07T22:40:39.361Z,23.80
2023-03-07T22:43:06.424Z,26.45
2023-03-07T22:45:33.341Z,32.78
2023-03-07T22:48:00.240Z,37.17
2023-03-07T22:50:27.346Z,33.47
2023-03-07T22:52:55.212Z,25.63
2023-03-07T22:55:22.368Z,25.90
2023-03-07T22:57:49.368Z,25.75
2023-03-07T23:00:16.643Z,32.88
2023-03-07T23:02:43.784Z,26.80
2023-03-07T23:05:11.264Z,28.52
2023-03-07T23:07:39.952Z,30.42
2023-03-07T23:10:07.028Z,25.20
2023-03-07T23:12:34.101Z,25.60
2023-03-07T23:15:01.094Z,30.00
2023-03-07T23:17:28.016Z,31.40
2023-03-07T23:19:55.037Z,36.65
2023-03-07T23:22:21.943Z,31.48
2023-03-07T23:24:48.904Z,27.58
2023-03-07T23:27:15.804Z,35.05
2023-03-07T23:29:42.736Z,27.63
2023-03-07T23:32:09.704Z,29.35
2023-03-07T23:34:36.732Z,32.63
2023-03-07T23:37:03.738Z,25.90
2023-03-07T23:39:30.708Z,26.50
2023-03-07T23:41:57.603Z,23.52
2023-03-07T23:44:24.585Z,23.08
2023-03-07T23:46:51.513Z,19.92
2023-03-07T23:49:18.460Z,18.27
2023-03-07T23:51:45.410Z,16.17
2023-03-07T23:54:12.418Z,23.40
2023-03-07T23:56:39.417Z,22.48
2023-03-07T23:59:06.406Z,21.40
